createdAt,value
2018-09-22T00:02:06.636Z,68.99
2018-09-22T00:04:35.212Z,68.77
2018-09-22T00:07:03.787Z,68.84
2018-09-22T00:09:32.353Z,69.43
2018-09-22T00:12:00.918Z,69.36
2018-09-22T00:14:29.505Z,69.40
2018-09-22T00:16:58.070Z,69.92
2018-09-22T00:19:26.720Z,69.93
2018-09-22T00:21:55.332Z,70.04
2018-09-22T00:24:23.872Z,70.69
2018-09-22T00:26:52.415Z,71.48
2018-09-22T00:29:20.992Z,71.12
2018-09-22T00:31:49.532Z,71.15
2018-09-22T00:34:18.114Z,70.68
2018-09-22T00:36:46.687Z,69.87
2018-09-22T00:39:15.321Z,70.51
2018-09-22T00:41:44.394Z,70.66
2018-09-22T00:44:13.005Z,70.66
2018-09-22T00:46:41.597Z,70.62
2018-09-22T00:49:10.165Z,70.55
2018-09-22T00:51:38.705Z,70.45
2018-09-22T00:54:07.316Z,70.49
2018-09-22T00:56:35.861Z,70.90
2018-09-22T00:59:04.467Z,70.90
2018-09-22T01:01:33.173Z,70.48
2018-09-22T01:04:01.824Z,70.61
2018-09-22T01:06:30.385Z,71.18
2018-09-22T01:08:58.961Z,71.15
2018-09-22T01:11:27.513Z,71.19
2018-09-22T01:13:56.082Z,70.85
2018-09-22T01:16:24.690Z,70.84
2018-09-22T01:18:53.253Z,70.69
2018-09-22T01:21:21.847Z,70.51
2018-09-22T01:23:50.400Z,70.24
2018-09-22T01:26:18.978Z,70.04
2018-09-22T01:28:47.522Z,70.29
2018-09-22T01:31:16.092Z,70.94
2018-09-22T01:33:44.648Z,70.64
2018-09-22T01:36:13.272Z,70.72
2018-09-22T01:38:41.858Z,70.62
2018-09-22T01:41:10.456Z,70.52
2018-09-22T01:43:39.026Z,70.68
2018-09-22T01:46:07.652Z,70.89
2018-09-22T01:48:36.203Z,70.41
2018-09-22T01:51:04.816Z,70.35
2018-09-22T01:53:33.384Z,69.96
2018-09-22T01:56:01.976Z,69.85
2018-09-22T01:58:30.533Z,69.67
2018-09-22T02:00:59.157Z,69.51
2018-09-22T02:03:27.747Z,69.84
2018-09-22T02:05:56.362Z,69.54
2018-09-22T02:08:24.920Z,69.81
2018-09-22T02:10:53.504Z,69.84
2018-09-22T02:13:22.044Z,69.57
2018-09-22T02:15:50.781Z,69.79
2018-09-22T02:18:19.397Z,69.53
2018-09-22T02:20:47.992Z,69.43
2018-09-22T02:23:16.555Z,69.58
2018-09-22T02:25:45.150Z,69.28
2018-09-22T02:29:38.085Z,69.48
2018-09-22T02:32:06.750Z,68.97
2018-09-22T02:34:35.369Z,69.05
2018-09-22T02:37:03.974Z,68.75
2018-09-22T02:39:32.544Z,68.80
2018-09-22T02:42:01.149Z,68.98
2018-09-22T02:44:29.734Z,68.58
2018-09-22T02:46:58.372Z,68.18
2018-09-22T02:49:26.931Z,68.83
2018-09-22T02:51:55.557Z,68.63
2018-09-22T02:54:24.132Z,68.82
2018-09-22T02:56:52.700Z,68.55
2018-09-22T02:59:21.811Z,68.46
2018-09-22T03:01:50.427Z,68.70
2018-09-22T03:04:19.305Z,68.51
2018-09-22T03:06:48.208Z,68.51
2018-09-22T03:09:16.770Z,69.21
2018-09-22T03:11:46.018Z,69.92
2018-09-22T03:14:14.620Z,70.69
2018-09-22T03:16:43.205Z,70.16
2018-09-22T03:19:11.761Z,70.97
2018-09-22T03:21:40.339Z,70.50
2018-09-22T03:24:08.905Z,70.32
2018-09-22T03:26:37.497Z,70.98
2018-09-22T03:29:06.262Z,70.97
2018-09-22T03:31:34.893Z,71.51
2018-09-22T03:34:03.496Z,72.27
2018-09-22T03:36:32.110Z,72.15
2018-09-22T03:39:00.687Z,71.97
2018-09-22T03:41:29.263Z,72.28
2018-09-22T03:43:57.792Z,72.29
2018-09-22T03:46:26.402Z,72.69
2018-09-22T03:48:54.972Z,72.78
2018-09-22T03:51:23.559Z,72.76
2018-09-22T03:53:52.103Z,71.80
2018-09-22T03:56:20.716Z,72.14
2018-09-22T03:58:49.329Z,72.13
2018-09-22T04:01:17.940Z,71.97
2018-09-22T04:03:46.539Z,71.87
2018-09-22T04:06:15.161Z,72.55
2018-09-22T04:08:43.709Z,72.37
2018-09-22T04:11:12.289Z,72.12
2018-09-22T04:13:40.924Z,71.95
2018-09-22T04:16:09.497Z,72.35
2018-09-22T04:18:38.080Z,72.33
2018-09-22T04:21:06.664Z,72.58
2018-09-22T04:23:35.234Z,72.06
2018-09-22T04:26:03.820Z,71.59
2018-09-22T04:28:32.405Z,71.48
2018-09-22T04:31:01.270Z,71.84
2018-09-22T04:33:30.608Z,71.89
2018-09-22T04:35:59.224Z,72.18
2018-09-22T04:38:27.775Z,72.13
2018-09-22T04:40:57.946Z,72.77
2018-09-22T04:43:27.303Z,73.12
2018-09-22T04:45:55.862Z,73.43
2018-09-22T04:48:24.605Z,73.23
2018-09-22T04:50:53.361Z,72.88
2018-09-22T04:53:22.225Z,72.39
2018-09-22T04:55:51.079Z,71.77
2018-09-22T04:58:19.671Z,72.15
2018-09-22T05:00:48.237Z,71.44
2018-09-22T05:03:16.837Z,72.12
2018-09-22T05:05:45.399Z,71.68
2018-09-22T05:08:13.975Z,71.41
2018-09-22T05:10:42.517Z,71.47
2018-09-22T05:13:11.071Z,71.39
2018-09-22T05:15:39.621Z,70.69
2018-09-22T05:18:08.204Z,70.69
2018-09-22T05:20:36.778Z,71.09
2018-09-22T05:23:05.413Z,70.80
2018-09-22T05:25:33.980Z,71.17
2018-09-22T05:28:02.577Z,71.53
2018-09-22T05:30:31.128Z,71.17
2018-09-22T05:32:59.734Z,70.96
2018-09-22T05:35:28.276Z,70.27
2018-09-22T05:37:56.869Z,70.08
2018-09-22T05:40:25.462Z,69.25
2018-09-22T05:42:54.037Z,68.45
2018-09-22T05:45:22.584Z,69.14
2018-09-22T05:47:51.194Z,68.56
2018-09-22T05:50:19.752Z,68.18
2018-09-22T05:52:48.349Z,68.37
2018-09-22T05:55:16.904Z,67.98
2018-09-22T05:57:45.489Z,68.49
2018-09-22T06:00:14.036Z,67.96
2018-09-22T06:02:42.614Z,67.85
2018-09-22T06:05:11.188Z,67.37
2018-09-22T06:07:40.118Z,67.05
2018-09-22T06:10:08.741Z,66.47
2018-09-22T06:12:37.398Z,65.89
2018-09-22T06:15:06.758Z,65.59
2018-09-22T06:17:35.298Z,64.78
2018-09-22T06:20:03.960Z,64.39
2018-09-22T06:22:32.607Z,63.96
2018-09-22T06:25:01.157Z,63.43
2018-09-22T06:27:29.845Z,63.00
2018-09-22T06:29:58.420Z,61.85
2018-09-22T06:32:26.969Z,61.91
2018-09-22T06:34:55.568Z,60.78
2018-09-22T06:37:24.134Z,61.34
2018-09-22T06:39:52.748Z,60.89
2018-09-22T06:42:21.288Z,59.25
2018-09-22T06:44:49.909Z,59.89
2018-09-22T06:47:18.530Z,59.68
2018-09-22T06:49:47.973Z,59.11
2018-09-22T06:52:16.557Z,58.87
2018-09-22T06:54:45.159Z,58.94
2018-09-22T06:57:13.745Z,58.75
2018-09-22T06:59:42.321Z,58.48
2018-09-22T07:02:10.869Z,57.79
2018-09-22T07:04:39.834Z,57.27
2018-09-22T07:07:08.641Z,56.76
2018-09-22T07:09:37.210Z,54.59
2018-09-22T07:12:05.752Z,53.78
2018-09-22T07:14:34.348Z,52.58
2018-09-22T07:17:03.611Z,50.50
2018-09-22T07:19:32.473Z,49.39
2018-09-22T07:22:06.232Z,47.75
2018-09-22T07:24:34.788Z,46.66
2018-09-22T07:27:03.322Z,46.37
2018-09-22T07:29:31.900Z,46.88
2018-09-22T07:32:00.469Z,47.27
2018-09-22T07:34:29.037Z,44.70
2018-09-22T07:36:57.598Z,42.21
2018-09-22T07:39:26.183Z,38.84
2018-09-22T07:41:54.731Z,39.34
2018-09-22T07:44:23.431Z,38.54
2018-09-22T07:46:51.953Z,38.33
2018-09-22T07:49:20.535Z,37.04
2018-09-22T07:51:49.073Z,36.41
2018-09-22T07:54:17.616Z,40.49
2018-09-22T07:56:46.140Z,44.52
2018-09-22T07:59:14.727Z,43.86
2018-09-22T08:01:43.351Z,43.63
2018-09-22T08:04:11.917Z,43.28
2018-09-22T08:06:40.447Z,43.43
2018-09-22T08:09:09.365Z,45.41
2018-09-22T08:11:37.939Z,48.59
2018-09-22T08:14:06.554Z,47.78
2018-09-22T08:16:35.090Z,47.73
2018-09-22T08:19:03.646Z,46.81
2018-09-22T08:21:32.197Z,46.50
2018-09-22T08:24:00.757Z,47.66
2018-09-22T08:26:29.297Z,48.03
2018-09-22T08:28:57.865Z,48.13
2018-09-22T08:31:26.423Z,46.77
2018-09-22T08:33:54.928Z,46.64
2018-09-22T08:36:23.666Z,47.67
2018-09-22T08:38:52.028Z,47.51
2018-09-22T08:41:20.579Z,47.16
2018-09-22T08:43:49.147Z,48.23
2018-09-22T08:46:17.720Z,46.68
2018-09-22T08:48:46.236Z,47.39
2018-09-22T08:51:14.819Z,47.08
2018-09-22T08:53:43.347Z,46.62
2018-09-22T08:56:11.893Z,46.13
2018-09-22T08:58:40.393Z,46.25
2018-09-22T09:01:08.943Z,45.39
2018-09-22T09:03:38.304Z,45.71
2018-09-22T09:06:06.890Z,45.86
2018-09-22T09:08:35.432Z,44.55
2018-09-22T09:11:03.988Z,44.76
2018-09-22T09:13:32.516Z,44.54
2018-09-22T09:16:01.073Z,44.22
2018-09-22T09:18:29.589Z,43.11
2018-09-22T09:20:58.130Z,44.23
2018-09-22T09:23:26.704Z,42.53
2018-09-22T09:25:55.244Z,43.10
2018-09-22T09:28:23.772Z,42.54
2018-09-22T09:30:52.318Z,43.25
2018-09-22T09:33:20.885Z,42.98
2018-09-22T09:35:49.528Z,44.23
2018-09-22T09:38:18.057Z,42.59
2018-09-22T09:40:46.638Z,42.26
2018-09-22T09:43:15.191Z,43.57
2018-09-22T09:45:43.764Z,43.87
2018-09-22T09:48:12.272Z,42.61
2018-09-22T09:50:40.915Z,43.17
2018-09-22T09:53:09.436Z,45.16
2018-09-22T09:55:38.020Z,44.38
2018-09-22T09:58:06.917Z,42.63
2018-09-22T10:00:40.656Z,42.98
2018-09-22T10:03:09.157Z,42.18
2018-09-22T10:05:37.793Z,41.61
2018-09-22T10:08:06.531Z,41.16
2018-09-22T10:10:35.314Z,42.40
2018-09-22T10:13:03.853Z,40.84
2018-09-22T10:15:32.412Z,38.77
2018-09-22T10:18:00.944Z,37.31
2018-09-22T10:20:29.524Z,35.92
2018-09-22T10:22:58.093Z,35.51
2018-09-22T10:25:26.600Z,36.35
2018-09-22T10:27:55.188Z,35.73
2018-09-22T10:30:23.722Z,35.63
2018-09-22T10:32:52.317Z,35.74
2018-09-22T10:35:20.848Z,36.01
2018-09-22T10:37:50.787Z,36.79
2018-09-22T10:40:20.286Z,37.90
2018-09-22T10:42:49.789Z,37.40
2018-09-22T10:45:18.423Z,37.30
2018-09-22T10:47:46.977Z,35.99
2018-09-22T10:50:16.365Z,36.09
2018-09-22T10:52:47.079Z,35.99
2018-09-22T10:55:15.612Z,35.69
2018-09-22T10:57:44.177Z,36.14
2018-09-22T11:00:12.717Z,35.08
2018-09-22T11:02:41.275Z,34.18
2018-09-22T11:05:10.765Z,33.94
2018-09-22T11:07:40.341Z,35.23
2018-09-22T11:10:09.630Z,34.03
2018-09-22T11:12:38.270Z,30.67
2018-09-22T11:15:08.343Z,30.63
2018-09-22T11:17:38.141Z,30.69
2018-09-22T11:20:08.275Z,30.67
2018-09-22T11:22:38.096Z,29.44
2018-09-22T11:25:07.049Z,28.19
2018-09-22T11:27:37.002Z,28.16
2018-09-22T11:30:07.220Z,28.28
2018-09-22T11:32:37.066Z,28.80
2018-09-22T11:35:05.635Z,28.25
2018-09-22T11:37:34.215Z,27.70
2018-09-22T11:40:02.765Z,27.70
2018-09-22T11:42:31.315Z,27.52
2018-09-22T11:44:59.852Z,25.88
2018-09-22T11:47:28.395Z,26.06
2018-09-22T11:49:56.932Z,25.64
2018-09-22T11:52:25.505Z,24.95
2018-09-22T11:54:54.036Z,23.65
2018-09-22T11:57:23.218Z,22.91
2018-09-22T11:59:51.780Z,23.37
2018-09-22T12:02:20.376Z,23.78
2018-09-22T12:04:48.908Z,24.58
2018-09-22T12:07:17.465Z,25.34
2018-09-22T12:09:45.972Z,25.68
2018-09-22T12:12:14.586Z,25.42
2018-09-22T12:14:43.108Z,25.08
2018-09-22T12:17:11.669Z,26.44
2018-09-22T12:19:40.213Z,27.58
2018-09-22T12:22:08.773Z,28.44
2018-09-22T12:24:37.293Z,28.88
2018-09-22T12:27:06.001Z,28.57
2018-09-22T12:29:34.530Z,27.62
2018-09-22T12:32:03.183Z,26.66
2018-09-22T12:34:31.646Z,26.60
2018-09-22T12:37:00.232Z,27.14
2018-09-22T12:39:28.777Z,25.98
2018-09-22T12:41:57.356Z,26.98
2018-09-22T12:44:25.891Z,27.81
2018-09-22T12:46:54.432Z,27.25
2018-09-22T12:49:23.034Z,26.76
2018-09-22T12:51:51.541Z,26.70
2018-09-22T12:54:20.097Z,26.16
2018-09-22T12:56:48.620Z,25.80
2018-09-22T12:59:17.184Z,24.74
2018-09-22T13:01:45.704Z,26.06
2018-09-22T13:04:14.273Z,25.71
2018-09-22T13:06:42.801Z,24.53
2018-09-22T13:09:11.885Z,23.59
2018-09-22T13:11:40.417Z,23.17
2018-09-22T13:14:08.992Z,23.15
2018-09-22T13:16:37.526Z,23.98
2018-09-22T13:19:06.157Z,22.45
2018-09-22T13:21:34.706Z,23.39
2018-09-22T13:24:03.353Z,22.67
2018-09-22T13:26:31.916Z,23.72
2018-09-22T13:29:00.457Z,24.68
2018-09-22T13:31:28.988Z,25.01
2018-09-22T13:33:57.744Z,25.44
2018-09-22T13:36:26.275Z,27.00
2018-09-22T13:38:54.830Z,26.46
2018-09-22T13:41:23.358Z,26.20
2018-09-22T13:43:51.916Z,25.87
2018-09-22T13:46:20.443Z,26.03
2018-09-22T13:48:49.040Z,26.34
2018-09-22T13:51:17.552Z,26.54
2018-09-22T13:53:46.110Z,27.88
2018-09-22T13:56:14.850Z,27.79
2018-09-22T13:58:43.364Z,27.67
2018-09-22T14:01:11.895Z,27.48
2018-09-22T14:03:40.514Z,27.80
2018-09-22T14:06:24.831Z,28.31
2018-09-22T14:09:03.579Z,27.87
2018-09-22T14:11:39.841Z,28.20
2018-09-22T14:14:10.467Z,28.68
2018-09-22T14:16:42.632Z,27.19
2018-09-22T14:19:17.591Z,26.49
2018-09-22T14:21:52.201Z,24.99
2018-09-22T14:24:26.717Z,25.44
2018-09-22T14:26:55.290Z,24.27
2018-09-22T14:29:23.896Z,25.52
2018-09-22T14:31:52.418Z,25.88
2018-09-22T14:34:21.004Z,26.17
2018-09-22T14:39:17.048Z,27.75
2018-09-22T14:41:45.564Z,28.85
2018-09-22T14:44:14.120Z,28.18
2018-09-22T14:46:42.612Z,28.34
2018-09-22T14:49:11.216Z,28.89
2018-09-22T14:51:39.757Z,27.97
2018-09-22T14:54:08.418Z,28.66
2018-09-22T14:56:37.034Z,27.86
2018-09-22T14:59:05.718Z,28.17
2018-09-22T15:01:34.344Z,29.02
2018-09-22T15:04:02.912Z,28.74
2018-09-22T15:06:31.495Z,29.23
2018-09-22T15:09:00.048Z,29.47
2018-09-22T15:11:28.583Z,28.78
2018-09-22T15:13:57.192Z,29.33
2018-09-22T15:16:25.704Z,28.65
2018-09-22T15:18:54.249Z,27.40
2018-09-22T15:21:22.797Z,28.12
2018-09-22T15:23:51.424Z,25.76
2018-09-22T15:26:19.924Z,25.67
2018-09-22T15:28:48.544Z,27.47
2018-09-22T15:31:17.108Z,27.26
2018-09-22T15:33:45.624Z,26.71
2018-09-22T15:36:14.180Z,26.82
2018-09-22T15:38:42.692Z,26.72
2018-09-22T15:41:11.273Z,26.23
2018-09-22T15:43:39.784Z,26.08
2018-09-22T15:46:08.342Z,26.58
2018-09-22T15:48:36.883Z,27.16
2018-09-22T15:51:05.509Z,28.63
2018-09-22T15:53:34.017Z,28.85
2018-09-22T15:56:02.565Z,29.03
2018-09-22T15:58:31.140Z,28.99
2018-09-22T16:00:59.774Z,27.29
2018-09-22T16:03:28.248Z,27.14
2018-09-22T16:05:56.793Z,28.66
2018-09-22T16:08:25.312Z,29.46
2018-09-22T16:10:53.861Z,30.63
2018-09-22T16:13:22.377Z,31.12
2018-09-22T16:15:50.923Z,30.14
2018-09-22T16:18:19.441Z,30.60
2018-09-22T16:20:47.984Z,30.66
2018-09-22T16:23:16.530Z,31.50
2018-09-22T16:25:45.169Z,32.88
2018-09-22T16:28:13.683Z,32.92
2018-09-22T16:30:42.239Z,32.63
2018-09-22T16:33:10.748Z,33.05
2018-09-22T16:35:39.320Z,34.94
2018-09-22T16:38:07.852Z,34.20
2018-09-22T16:40:36.424Z,34.13
2018-09-22T16:43:04.968Z,33.28
2018-09-22T16:45:33.524Z,34.22
2018-09-22T16:48:02.065Z,34.88
2018-09-22T16:50:30.669Z,37.40
2018-09-22T16:52:59.180Z,37.76
2018-09-22T16:55:27.755Z,39.71
2018-09-22T16:57:56.297Z,40.37
2018-09-22T17:00:24.867Z,40.10
2018-09-22T17:02:53.402Z,39.67
2018-09-22T17:05:21.976Z,39.81
2018-09-22T17:07:50.515Z,40.36
2018-09-22T17:10:19.084Z,41.20
2018-09-22T17:12:47.652Z,42.80
2018-09-22T17:15:16.260Z,41.91
2018-09-22T17:17:44.879Z,42.27
2018-09-22T17:20:13.453Z,41.71
2018-09-22T17:22:42.025Z,42.99
2018-09-22T17:25:10.602Z,43.17
2018-09-22T17:27:39.209Z,43.27
2018-09-22T17:30:07.776Z,43.17
2018-09-22T17:32:38.262Z,44.78
2018-09-22T17:35:07.844Z,44.10
2018-09-22T17:37:36.508Z,45.17
2018-09-22T17:40:05.144Z,45.20
2018-09-22T17:42:34.503Z,45.32
2018-09-22T17:45:03.149Z,45.12
2018-09-22T17:47:31.790Z,45.07
2018-09-22T17:50:00.312Z,45.08
2018-09-22T17:52:29.412Z,45.02
2018-09-22T17:54:57.988Z,44.73
2018-09-22T17:57:26.549Z,44.93
2018-09-22T17:59:55.894Z,45.06
2018-09-22T18:02:25.430Z,44.50
2018-09-22T18:04:53.996Z,44.64
2018-09-22T18:07:22.871Z,45.23
2018-09-22T18:09:51.774Z,45.12
2018-09-22T18:12:20.896Z,45.25
2018-09-22T18:14:49.477Z,45.41
2018-09-22T18:17:18.738Z,45.43
2018-09-22T18:19:47.316Z,44.83
2018-09-22T18:22:15.880Z,45.58
2018-09-22T18:24:44.420Z,45.42
2018-09-22T18:27:13.077Z,45.09
2018-09-22T18:29:41.613Z,46.49
2018-09-22T18:32:10.185Z,45.17
2018-09-22T18:34:38.721Z,45.85
2018-09-22T18:37:07.343Z,45.77
2018-09-22T18:39:35.904Z,46.70
2018-09-22T18:42:04.500Z,45.97
2018-09-22T18:44:34.034Z,46.36
2018-09-22T18:47:02.584Z,46.96
2018-09-22T18:49:31.133Z,46.14
2018-09-22T18:51:59.692Z,46.53
2018-09-22T18:54:28.229Z,46.93
2018-09-22T18:56:56.780Z,47.11
2018-09-22T18:59:25.313Z,47.31
2018-09-22T19:01:53.890Z,46.25
2018-09-22T19:04:22.409Z,47.33
2018-09-22T19:08:15.388Z,47.44
2018-09-22T19:10:43.924Z,48.47
2018-09-22T19:13:14.828Z,47.71
2018-09-22T19:15:50.624Z,48.15
2018-09-22T19:18:24.570Z,46.70
2018-09-22T19:21:11.297Z,45.24
2018-09-22T19:23:45.869Z,45.77
2018-09-22T19:26:19.335Z,46.05
2018-09-22T19:28:51.832Z,45.50
2018-09-22T19:31:24.256Z,45.42
2018-09-22T19:33:59.477Z,46.23
2018-09-22T19:36:32.500Z,46.64
2018-09-22T19:39:11.953Z,45.57
2018-09-22T19:41:50.469Z,45.59
2018-09-22T19:45:28.252Z,45.64
2018-09-22T19:49:05.784Z,45.37
2018-09-22T19:51:38.420Z,45.92
2018-09-22T19:54:07.072Z,45.94
2018-09-22T19:56:35.612Z,46.60
2018-09-22T19:59:04.189Z,48.32
2018-09-22T20:01:32.716Z,50.77
2018-09-22T20:04:01.304Z,52.02
2018-09-22T20:06:29.844Z,54.21
2018-09-22T20:08:58.421Z,56.67
2018-09-22T20:11:26.995Z,59.26
2018-09-22T20:13:55.544Z,59.04
2018-09-22T20:16:24.077Z,59.23
2018-09-22T20:18:52.648Z,58.82
2018-09-22T20:21:21.190Z,60.91
2018-09-22T20:23:49.758Z,59.12
2018-09-22T20:26:19.093Z,59.99
2018-09-22T20:28:47.697Z,59.98
2018-09-22T20:31:16.838Z,60.83
2018-09-22T20:33:46.276Z,60.74
2018-09-22T20:36:14.877Z,62.79
2018-09-22T20:38:43.457Z,62.99
2018-09-22T20:41:12.503Z,63.05
2018-09-22T20:43:44.533Z,63.66
2018-09-22T20:46:13.064Z,62.45
2018-09-22T20:48:41.624Z,60.87
2018-09-22T20:51:10.161Z,62.01
2018-09-22T20:53:38.795Z,62.49
2018-09-22T20:56:07.493Z,61.90
2018-09-22T20:58:36.072Z,62.00
2018-09-22T21:01:04.625Z,61.60
2018-09-22T21:03:33.201Z,62.03
2018-09-22T21:06:01.750Z,61.50
2018-09-22T21:08:30.324Z,62.48
2018-09-22T21:10:58.904Z,63.26
2018-09-22T21:13:27.493Z,62.77
2018-09-22T21:15:56.355Z,61.71
2018-09-22T21:18:24.883Z,63.02
2018-09-22T21:20:53.511Z,62.51
2018-09-22T21:23:22.101Z,62.01
2018-09-22T21:25:50.692Z,61.69
2018-09-22T21:28:19.235Z,61.23
2018-09-22T21:30:47.865Z,61.53
2018-09-22T21:33:16.349Z,61.80
2018-09-22T21:35:44.940Z,61.91
2018-09-22T21:38:13.476Z,62.23
2018-09-22T21:40:42.041Z,62.55
2018-09-22T21:43:10.578Z,62.46
2018-09-22T21:45:39.141Z,61.47
2018-09-22T21:48:07.693Z,62.49
2018-09-22T21:50:36.241Z,62.15
2018-09-22T21:53:04.784Z,62.69
2018-09-22T21:55:33.324Z,62.61
2018-09-22T21:58:01.865Z,62.40
2018-09-22T22:00:30.481Z,62.54
2018-09-22T22:02:59.151Z,62.55
2018-09-22T22:05:27.799Z,63.23
2018-09-22T22:07:56.349Z,63.55
2018-09-22T22:10:25.087Z,64.33
2018-09-22T22:12:53.626Z,64.57
2018-09-22T22:15:22.211Z,65.43
2018-09-22T22:17:50.737Z,65.82
2018-09-22T22:20:19.316Z,65.69
2018-09-22T22:22:47.864Z,65.81
2018-09-22T22:25:16.448Z,65.14
2018-09-22T22:27:44.991Z,66.22
2018-09-22T22:30:13.607Z,64.96
2018-09-22T22:32:42.157Z,64.79
2018-09-22T22:35:10.818Z,64.90
2018-09-22T22:37:39.308Z,65.42
2018-09-22T22:40:07.923Z,66.35
2018-09-22T22:42:36.453Z,67.69
2018-09-22T22:45:05.153Z,67.43
2018-09-22T22:47:33.702Z,66.51
2018-09-22T22:50:02.276Z,66.82
2018-09-22T22:52:33.531Z,66.57
2018-09-22T22:55:02.121Z,65.07
2018-09-22T22:57:30.648Z,65.55
2018-09-22T22:59:59.211Z,66.24
2018-09-22T23:02:27.786Z,67.65
2018-09-22T23:04:56.429Z,69.10
2018-09-22T23:07:25.000Z,69.56
2018-09-22T23:09:53.674Z,68.85
2018-09-22T23:12:24.315Z,66.96
2018-09-22T23:14:52.936Z,65.94
2018-09-22T23:17:21.533Z,65.94
2018-09-22T23:19:50.112Z,66.07
2018-09-22T23:22:18.639Z,66.23
2018-09-22T23:24:47.164Z,66.82
2018-09-22T23:27:16.724Z,66.59
2018-09-22T23:29:45.333Z,67.76
2018-09-22T23:32:13.912Z,67.55
2018-09-22T23:34:42.440Z,69.60
2018-09-22T23:37:11.016Z,68.59
2018-09-22T23:39:39.563Z,69.25
2018-09-22T23:42:08.140Z,68.76
2018-09-22T23:44:36.688Z,70.32
2018-09-22T23:47:05.314Z,72.46
2018-09-22T23:49:33.845Z,74.12
2018-09-22T23:52:02.404Z,75.22
2018-09-22T23:54:30.946Z,74.65
2018-09-22T23:56:59.504Z,74.43
2018-09-22T23:59:28.035Z,73.86
